createdAt,value
2018-03-06T00:04:06.979Z,-1.1
2018-03-06T00:09:35.098Z,-1.1
2018-03-06T00:15:02.264Z,-1.2
2018-03-06T00:20:29.253Z,-1.2
2018-03-06T00:25:56.405Z,-1.2
2018-03-06T00:31:23.406Z,-1.2
2018-03-06T00:36:50.483Z,-1.2
2018-03-06T00:42:17.553Z,-1.2
2018-03-06T00:47:44.649Z,-1.1
2018-03-06T00:53:12.728Z,-1
2018-03-06T00:58:41.016Z,-0.9
2018-03-06T01:04:08.187Z,-1
2018-03-06T01:09:35.008Z,-1
2018-03-06T01:15:03.101Z,-1
2018-03-06T01:20:30.398Z,-1.1
2018-03-06T01:25:57.294Z,-1.1
2018-03-06T01:31:25.338Z,-1.1
2018-03-06T01:36:53.430Z,-1.2
2018-03-06T01:42:20.527Z,-1.2
2018-03-06T01:47:48.586Z,-1.2
2018-03-06T01:53:15.708Z,-1.2
2018-03-06T01:58:44.098Z,-1.2
2018-03-06T02:04:10.089Z,-1.2
2018-03-06T02:09:37.890Z,-1.2
2018-03-06T02:15:05.351Z,-1.2
2018-03-06T02:20:32.134Z,-1.2
2018-03-06T02:26:00.100Z,-1.2
2018-03-06T02:31:28.228Z,-1.1
2018-03-06T02:36:56.275Z,-1.1
2018-03-06T02:42:24.415Z,-1.1
2018-03-06T02:47:51.586Z,-1.1
2018-03-06T02:53:19.549Z,-1.1
2018-03-06T02:58:47.723Z,-1.1
2018-03-06T03:04:14.887Z,-1.1
2018-03-06T03:09:42.797Z,-1.1
2018-03-06T03:15:10.864Z,-1.2
2018-03-06T03:20:38.944Z,-1.2
2018-03-06T03:26:07.065Z,-1.1
2018-03-06T03:31:35.159Z,-1.1
2018-03-06T03:37:03.418Z,-1
2018-03-06T03:42:31.345Z,-1
2018-03-06T03:47:58.406Z,-1
2018-03-06T03:53:25.528Z,-1
2018-03-06T03:58:52.633Z,-1
2018-03-06T04:04:20.713Z,-0.9
2018-03-06T04:09:48.828Z,-0.9
2018-03-06T04:15:15.911Z,-0.9
2018-03-06T04:20:44.050Z,-0.9
2018-03-06T04:26:12.132Z,-0.9
2018-03-06T04:31:39.186Z,-0.9
2018-03-06T04:37:06.324Z,-0.9
2018-03-06T04:42:33.416Z,-0.9
2018-03-06T04:48:00.480Z,-0.9
2018-03-06T04:53:27.586Z,-0.9
2018-03-06T04:58:55.696Z,-0.9
2018-03-06T05:04:23.749Z,-0.9
2018-03-06T05:09:51.946Z,-1
2018-03-06T05:15:19.916Z,-1
2018-03-06T05:20:48.134Z,-0.9
2018-03-06T05:26:15.110Z,-0.9
2018-03-06T05:31:43.191Z,-0.9
2018-03-06T05:37:11.310Z,-0.9
2018-03-06T05:42:39.389Z,-0.8
2018-03-06T05:48:06.492Z,-0.8
2018-03-06T05:53:33.834Z,-0.7
2018-03-06T05:59:00.715Z,-0.7
2018-03-06T06:04:27.865Z,-0.7
2018-03-06T06:09:54.938Z,-0.7
2018-03-06T06:15:23.186Z,-0.6
2018-03-06T06:20:50.443Z,-0.6
2018-03-06T06:26:17.392Z,-0.5
2018-03-06T06:31:44.501Z,-0.5
2018-03-06T06:37:11.620Z,-0.4
2018-03-06T06:42:38.784Z,-0.4
2018-03-06T06:48:05.882Z,-0.3
2018-03-06T06:53:33.024Z,-0.2
2018-03-06T06:59:00.270Z,-0.1
2018-03-06T07:04:27.465Z,0.1
2018-03-06T07:09:54.507Z,0.3
2018-03-06T07:15:21.712Z,0.5
2018-03-06T07:20:49.050Z,0.7
2018-03-06T07:26:17.112Z,0.9
2018-03-06T07:31:44.331Z,1
2018-03-06T07:37:11.625Z,1.1
2018-03-06T07:42:38.940Z,1.2
2018-03-06T07:48:06.201Z,1.3
2018-03-06T07:53:34.494Z,1.4
2018-03-06T07:59:01.757Z,1.6
2018-03-06T08:04:29.062Z,1.8
2018-03-06T08:09:56.389Z,1.9
2018-03-06T08:15:23.672Z,2.1
2018-03-06T08:20:51.991Z,2.3
2018-03-06T08:26:19.490Z,2.4
2018-03-06T08:31:46.717Z,2.5
2018-03-06T08:37:15.145Z,2.7
2018-03-06T08:42:43.461Z,2.8
2018-03-06T08:48:11.851Z,2.7
2018-03-06T08:53:40.237Z,2.8
2018-03-06T08:59:07.620Z,2.7
2018-03-06T09:04:36.005Z,2.8
2018-03-06T09:10:03.432Z,3
2018-03-06T09:15:31.831Z,3.3
2018-03-06T09:21:00.333Z,3.6
2018-03-06T09:26:27.690Z,3.8
2018-03-06T09:31:55.173Z,4.1
2018-03-06T09:37:23.996Z,4.3
2018-03-06T09:42:52.171Z,4.6
2018-03-06T09:48:19.661Z,4.7
2018-03-06T09:53:47.234Z,5
2018-03-06T09:59:15.887Z,5.1
2018-03-06T10:04:43.298Z,5.4
2018-03-06T10:10:10.857Z,5.6
2018-03-06T10:15:39.467Z,5.9
2018-03-06T10:21:08.557Z,5.9
2018-03-06T10:26:35.931Z,6
2018-03-06T10:32:04.381Z,6.1
2018-03-06T10:37:32.015Z,6.2
2018-03-06T10:43:00.826Z,6.3
2018-03-06T10:48:29.352Z,6.4
2018-03-06T10:53:57.940Z,6.4
2018-03-06T10:59:26.723Z,6.5
2018-03-06T11:04:55.397Z,6.7
2018-03-06T11:10:24.011Z,6.8
2018-03-06T11:15:51.700Z,6.9
2018-03-06T11:21:19.375Z,6.9
2018-03-06T11:26:48.073Z,7
2018-03-06T11:32:16.837Z,7.2
2018-03-06T11:37:45.567Z,7.3
2018-03-06T11:43:14.333Z,7.4
2018-03-06T11:48:42.217Z,7.6
2018-03-06T11:54:09.872Z,8.3
2018-03-06T11:59:38.757Z,9.4
2018-03-06T12:05:06.717Z,10.4
2018-03-06T12:10:34.775Z,11.2
2018-03-06T12:16:02.917Z,11.9
2018-03-06T12:21:31.126Z,12.3
2018-03-06T12:26:59.597Z,12.8
2018-03-06T12:32:28.738Z,13.2
2018-03-06T12:37:57.338Z,13.7
2018-03-06T12:43:25.798Z,14.1
2018-03-06T12:48:53.998Z,14
2018-03-06T12:54:22.350Z,14.1
2018-03-06T12:59:51.807Z,14.4
2018-03-06T13:05:21.572Z,14.5
2018-03-06T13:10:50.747Z,14.5
2018-03-06T13:16:20.336Z,14.8
2018-03-06T13:21:48.804Z,14.6
2018-03-06T13:27:18.546Z,14.2
2018-03-06T13:32:47.792Z,13.9
2018-03-06T13:38:17.168Z,14.1
2018-03-06T13:43:45.659Z,14.4
2018-03-06T13:49:15.246Z,14
2018-03-06T13:54:43.626Z,14.1
2018-03-06T14:00:13.105Z,14.3
2018-03-06T14:05:42.576Z,14.1
2018-03-06T14:11:11.023Z,13.5
2018-03-06T14:16:39.468Z,12.9
2018-03-06T14:22:07.844Z,13.2
2018-03-06T14:27:36.109Z,13.1
2018-03-06T14:33:04.363Z,12.4
2018-03-06T14:38:33.598Z,11.5
2018-03-06T14:44:01.814Z,10.9
2018-03-06T14:49:29.826Z,10.3
2018-03-06T14:54:57.832Z,9.5
2018-03-06T15:00:25.864Z,9.1
2018-03-06T15:05:53.816Z,9.5
2018-03-06T15:11:22.747Z,9.8
2018-03-06T15:16:50.750Z,9.9
2018-03-06T15:22:20.013Z,9.4
2018-03-06T15:27:47.728Z,9
2018-03-06T15:33:16.695Z,8.6
2018-03-06T15:38:45.660Z,8.2
2018-03-06T15:44:13.399Z,7.5
2018-03-06T15:49:41.265Z,7.1
2018-03-06T15:55:09.052Z,6.8
2018-03-06T16:00:37.576Z,6.3
2018-03-06T16:06:06.268Z,5.9
2018-03-06T16:11:33.923Z,5.5
2018-03-06T16:17:02.850Z,5.2
2018-03-06T16:22:30.081Z,4.8
2018-03-06T16:27:57.606Z,4.7
2018-03-06T16:33:26.132Z,4.5
2018-03-06T16:38:53.691Z,4.2
2018-03-06T16:44:21.172Z,4
2018-03-06T16:49:48.650Z,3.8
2018-03-06T16:55:17.301Z,3.5
2018-03-06T17:00:44.567Z,3.3
2018-03-06T17:06:13.024Z,3.1
2018-03-06T17:11:41.505Z,2.9
2018-03-06T17:17:08.834Z,2.9
2018-03-06T17:22:37.249Z,2.8
2018-03-06T17:28:05.673Z,2.7
2018-03-06T17:33:34.040Z,2.7
2018-03-06T17:39:01.485Z,2.6
2018-03-06T17:44:29.968Z,2.5
2018-03-06T17:49:58.306Z,2.5
2018-03-06T17:55:25.680Z,2.4
2018-03-06T18:00:54.073Z,2.4
2018-03-06T18:06:22.443Z,2.3
2018-03-06T18:11:50.860Z,2.3
2018-03-06T18:17:18.269Z,2.2
2018-03-06T18:22:45.585Z,2.2
2018-03-06T18:28:13.937Z,2.2
2018-03-06T18:33:41.312Z,2.1
2018-03-06T18:39:09.651Z,2.2
2018-03-06T18:44:38.030Z,2.1
2018-03-06T18:50:06.356Z,2.1
2018-03-06T18:55:34.728Z,2
2018-03-06T19:01:03.054Z,2
2018-03-06T19:06:31.437Z,1.9
2018-03-06T19:11:58.791Z,1.9
2018-03-06T19:11:59.470Z,1.9
2018-03-06T19:17:26.140Z,1.8
2018-03-06T19:22:54.437Z,1.8
2018-03-06T19:28:22.751Z,1.9
2018-03-06T19:33:51.048Z,1.8
2018-03-06T19:39:18.383Z,1.8
2018-03-06T19:44:45.744Z,1.8
2018-03-06T19:50:14.131Z,1.7
2018-03-06T19:55:42.376Z,1.7
2018-03-06T20:01:09.654Z,1.6
2018-03-06T20:06:37.038Z,1.6
2018-03-06T20:12:05.347Z,1.6
2018-03-06T20:17:32.688Z,1.6
2018-03-06T20:22:59.952Z,1.5
2018-03-06T20:28:28.335Z,1.4
2018-03-06T20:33:56.594Z,1.4
2018-03-06T20:39:24.943Z,1.4
2018-03-06T20:44:52.217Z,1.3
2018-03-06T20:50:19.541Z,1.3
2018-03-06T20:55:47.917Z,1.3
2018-03-06T21:01:15.157Z,1.3
2018-03-06T21:06:42.401Z,1.3
2018-03-06T21:12:10.663Z,1.3
2018-03-06T21:17:39.004Z,1.3
2018-03-06T21:23:06.284Z,1.2
2018-03-06T21:28:33.521Z,1.1
2018-03-06T21:34:00.911Z,1.1
2018-03-06T21:39:28.104Z,1.1
2018-03-06T21:44:55.535Z,1.1
2018-03-06T21:50:22.707Z,1
2018-03-06T21:55:50.953Z,1
2018-03-06T22:01:19.202Z,1
2018-03-06T22:06:46.477Z,1
2018-03-06T22:12:13.788Z,1
2018-03-06T22:17:41.015Z,0.9
2018-03-06T22:23:08.232Z,0.9
2018-03-06T22:28:35.477Z,0.8
2018-03-06T22:34:02.808Z,0.8
2018-03-06T22:39:30.013Z,0.9
2018-03-06T22:44:58.258Z,0.9
2018-03-06T22:50:25.518Z,0.9
2018-03-06T22:55:52.763Z,0.8
2018-03-06T23:01:20.006Z,0.6
2018-03-06T23:06:48.258Z,0.7
2018-03-06T23:12:15.519Z,0.7
2018-03-06T23:17:42.731Z,0.7
2018-03-06T23:23:10.975Z,0.7
2018-03-06T23:28:39.205Z,0.8
2018-03-06T23:34:06.459Z,0.7
2018-03-06T23:39:33.716Z,0.7
2018-03-06T23:45:02.014Z,0.7
2018-03-06T23:50:29.248Z,0.6
2018-03-06T23:55:57.430Z,0.6
